Time;durP1;ratioP1;P1;durP2;ratioP2;P2;SDS_P1;SDS_P2;PMS_P1;PMS_P2;Temp;Humidity;BMP_temperature;BMP_pressure;BME280_temperature;BME280_humidity;BME280_pressure;Samples;Min_cycle;Max_cycle;Signal;HPM_P1;HPM_P2
2022/05/06 00:01:50;;;;;;;35.10;15.68;;;10.10;99.90;;;;;;4995860;28;20050;-75
2022/05/06 00:04:16;;;;;;;35.10;17.55;;;10.10;99.90;;;;;;4996870;28;20054;-77
2022/05/06 00:06:42;;;;;;;36.00;17.67;;;10.10;99.90;;;;;;4997161;28;20042;-76
2022/05/06 00:09:08;;;;;;;35.80;18.08;;;10.10;99.90;;;;;;4995726;28;20019;-79
2022/05/06 00:11:34;;;;;;;43.58;18.63;;;10.10;99.90;;;;;;4991285;28;20026;-77
2022/05/06 00:13:59;;;;;;;45.08;18.48;;;10.10;99.90;;;;;;4993374;28;20031;-78
2022/05/06 00:16:27;;;;;;;38.15;18.27;;;10.10;99.90;;;;;;4992609;28;20050;-76
2022/05/06 00:18:54;;;;;;;41.78;18.63;;;10.10;99.90;;;;;;4992485;28;20023;-77
2022/05/06 00:21:21;;;;;;;37.42;16.77;;;10.00;99.90;;;;;;4991967;28;20050;-79
2022/05/06 00:23:47;;;;;;;42.08;16.80;;;10.00;99.90;;;;;;4990094;28;20031;-83
2022/05/06 00:26:13;;;;;;;37.05;16.20;;;10.00;99.90;;;;;;4980984;28;20042;-75
2022/05/06 00:28:39;;;;;;;39.63;19.48;;;10.00;99.90;;;;;;4974102;28;20152;-75
2022/05/06 00:31:06;;;;;;;35.42;18.00;;;10.00;99.90;;;;;;4957819;28;20026;-75
2022/05/06 00:33:33;;;;;;;33.97;16.95;;;10.00;99.90;;;;;;4954381;28;20440;-75
2022/05/06 00:36:01;;;;;;;53.47;17.58;;;9.80;99.90;;;;;;4954441;28;20066;-76
2022/05/06 00:38:29;;;;;;;37.20;19.80;;;9.90;99.90;;;;;;4956819;28;20031;-76
2022/05/06 00:40:55;;;;;;;31.45;15.43;;;9.90;99.90;;;;;;4954995;28;20074;-75
2022/05/06 00:43:21;;;;;;;32.20;15.90;;;9.90;99.90;;;;;;4955584;28;20055;-75
2022/05/06 00:45:53;;;;;;;32.75;15.43;;;9.80;99.90;;;;;;4971147;28;20131;-75
2022/05/06 00:48:22;;;;;;;36.53;14.80;;;9.80;99.90;;;;;;4974527;28;20057;-75
2022/05/06 00:50:49;;;;;;;42.97;17.25;;;9.80;99.90;;;;;;4974821;28;20026;-75
2022/05/06 00:53:16;;;;;;;34.95;15.75;;;9.80;99.90;;;;;;4974525;28;20074;-76
2022/05/06 00:55:42;;;;;;;37.30;14.82;;;9.70;99.90;;;;;;4971729;28;20034;-75
2022/05/06 00:58:09;;;;;;;38.75;16.83;;;9.70;99.90;;;;;;4973361;28;20027;-75
2022/05/06 01:00:35;;;;;;;33.75;14.90;;;9.70;99.90;;;;;;4961484;28;20023;-75
2022/05/06 01:03:01;;;;;;;33.80;16.98;;;9.70;99.90;;;;;;4959117;29;20046;-74
2022/05/06 01:05:26;;;;;;;35.63;15.63;;;9.70;99.90;;;;;;4954869;28;20023;-75
2022/05/06 01:07:53;;;;;;;36.45;16.25;;;9.70;99.90;;;;;;4958096;28;20035;-75
2022/05/06 01:10:20;;;;;;;39.95;16.42;;;9.70;99.90;;;;;;4956420;28;20023;-75
2022/05/06 01:12:47;;;;;;;32.78;16.17;;;9.70;99.90;;;;;;4956950;28;20535;-75
2022/05/06 01:15:21;;;;;;;40.80;18.55;;;9.70;99.90;;;;;;4969393;28;20027;-76
2022/05/06 01:17:57;;;;;;;40.60;17.15;;;9.60;99.90;;;;;;4979402;28;20324;-74
2022/05/06 01:20:24;;;;;;;38.20;15.77;;;9.60;99.90;;;;;;4975465;28;20503;-74
2022/05/06 01:22:56;;;;;;;38.05;16.02;;;9.70;99.90;;;;;;4972901;28;20046;-75
2022/05/06 01:25:22;;;;;;;37.13;15.57;;;9.70;99.90;;;;;;4975979;28;20022;-75
2022/05/06 01:27:57;;;;;;;40.72;18.70;;;9.60;99.90;;;;;;4974658;28;20027;-74
2022/05/06 01:30:38;;;;;;;37.83;16.48;;;9.60;99.90;;;;;;4973136;28;20090;-75
2022/05/06 01:33:06;;;;;;;39.65;17.52;;;9.60;99.90;;;;;;4980306;28;20071;-75
2022/05/06 01:35:41;;;;;;;39.60;16.88;;;9.60;99.90;;;;;;4979877;28;20027;-75
2022/05/06 01:38:08;;;;;;;44.28;19.27;;;9.60;99.90;;;;;;4976085;28;20186;-74
2022/05/06 01:40:39;;;;;;;42.35;19.35;;;9.60;99.90;;;;;;4973183;28;20023;-75
2022/05/06 01:43:09;;;;;;;41.38;16.10;;;9.60;99.90;;;;;;4972539;28;20531;-74
2022/05/06 01:45:36;;;;;;;;;;;9.60;99.90;;;;;;4978042;28;20105;-76
2022/05/06 01:48:04;;;;;;;46.10;19.63;;;9.60;99.90;;;;;;4977892;28;19913;-75
2022/05/06 01:50:38;;;;;;;48.28;18.02;;;9.60;99.90;;;;;;4976418;28;20023;-75
2022/05/06 01:53:05;;;;;;;40.63;16.83;;;9.60;99.90;;;;;;4975784;28;20074;-74
2022/05/06 01:55:31;;;;;;;36.95;16.90;;;9.60;99.90;;;;;;4975984;28;20023;-74
2022/05/06 01:57:56;;;;;;;36.17;16.88;;;9.60;99.90;;;;;;4979665;28;20041;-76
2022/05/06 02:00:22;;;;;;;43.00;18.05;;;9.60;99.90;;;;;;4991751;28;20073;-74
2022/05/06 02:02:48;;;;;;;44.40;17.85;;;9.60;99.90;;;;;;5012420;28;20066;-75
2022/05/06 02:05:19;;;;;;;44.10;17.33;;;9.60;99.90;;;;;;5002852;28;20029;-75
2022/05/06 02:07:46;;;;;;;44.67;19.52;;;9.50;99.90;;;;;;4999079;28;20034;-76
2022/05/06 02:10:13;;;;;;;42.50;17.50;;;9.50;99.90;;;;;;4999664;28;20018;-75
2022/05/06 02:12:39;;;;;;;44.33;17.50;;;9.60;99.90;;;;;;5003829;28;20038;-74
2022/05/06 02:15:07;;;;;;;39.35;18.10;;;9.50;99.90;;;;;;4981445;28;20079;-74
2022/05/06 02:17:32;;;;;;;40.97;18.25;;;9.50;99.90;;;;;;4958668;28;20035;-75
2022/05/06 02:19:58;;;;;;;39.63;18.45;;;9.50;99.90;;;;;;4956661;28;20086;-74
2022/05/06 02:22:27;;;;;;;48.92;18.83;;;9.50;99.90;;;;;;4956215;28;20038;-75
2022/05/06 02:24:55;;;;;;;41.08;16.05;;;9.50;99.90;;;;;;4962475;28;20488;-75
2022/05/06 02:27:21;;;;;;;49.55;16.90;;;9.60;99.90;;;;;;4989792;28;20089;-75
2022/05/06 02:35:17;;;;;;;42.97;16.30;;;9.50;99.90;;;;;;4975268;28;20046;-76
2022/05/06 02:37:43;;;;;;;47.40;19.17;;;9.60;99.90;;;;;;4975871;28;20022;-74
2022/05/06 02:40:10;;;;;;;39.28;17.65;;;9.60;99.90;;;;;;4976421;28;20027;-75
2022/05/06 02:42:36;;;;;;;46.45;18.67;;;9.60;99.90;;;;;;4978747;28;20046;-76
2022/05/06 02:45:02;;;;;;;46.70;17.00;;;9.50;99.90;;;;;;4975713;28;20030;-76
2022/05/06 02:47:29;;;;;;;44.95;18.65;;;9.60;99.90;;;;;;4985010;28;20083;-77
2022/05/06 02:49:56;;;;;;;43.45;17.88;;;9.60;99.90;;;;;;4994688;28;20106;-78
2022/05/06 02:52:25;;;;;;;47.58;18.02;;;9.50;99.90;;;;;;4989627;28;20042;-78
2022/05/06 02:54:52;;;;;;;42.25;17.02;;;9.50;99.90;;;;;;4992231;28;20519;-77
2022/05/06 02:57:18;;;;;;;50.78;17.42;;;9.50;99.90;;;;;;4994724;28;20018;-80
2022/05/06 02:59:43;;;;;;;56.83;20.25;;;9.50;99.90;;;;;;5010750;28;20057;-75
2022/05/06 03:02:09;;;;;;;55.47;18.92;;;9.50;99.90;;;;;;4995739;28;20035;-78
2022/05/06 03:04:36;;;;;;;45.75;19.33;;;9.60;99.90;;;;;;4995839;28;20074;-76
2022/05/06 03:07:06;;;;;;;55.63;21.77;;;9.50;99.90;;;;;;4995319;28;20660;-78
2022/05/06 03:09:33;;;;;;;43.22;17.75;;;9.50;99.90;;;;;;4994391;28;20030;-80
2022/05/06 03:11:59;;;;;;;50.05;20.77;;;9.50;99.90;;;;;;4994738;28;20054;-74
2022/05/06 03:14:24;;;;;;;54.90;20.63;;;9.50;99.90;;;;;;4999470;28;20066;-76
2022/05/06 03:16:50;;;;;;;51.53;22.17;;;9.60;99.90;;;;;;5016596;28;20018;-75
2022/05/06 03:19:16;;;;;;;50.63;17.80;;;9.50;99.90;;;;;;5016178;28;20026;-75
2022/05/06 03:21:50;;;;;;;58.90;21.98;;;9.50;99.90;;;;;;5015768;28;20022;-75
2022/05/06 03:24:16;;;;;;;48.45;18.98;;;9.50;99.90;;;;;;5014352;28;20073;-75
2022/05/06 03:26:42;;;;;;;54.13;21.13;;;9.50;99.90;;;;;;5015564;28;20026;-75
2022/05/06 03:29:09;;;;;;;48.20;19.90;;;9.50;99.90;;;;;;5011658;28;20030;-75
2022/05/06 03:31:36;;;;;;;47.55;19.60;;;9.50;99.90;;;;;;4996645;28;20221;-75
2022/05/06 03:34:02;;;;;;;52.42;17.65;;;9.50;99.90;;;;;;4997612;28;20019;-75
2022/05/06 03:36:29;;;;;;;49.33;19.75;;;9.50;99.90;;;;;;4996459;28;20033;-77
2022/05/06 03:38:55;;;;;;;47.45;18.73;;;;;;;;;;4995484;28;20007;-76
2022/05/06 03:41:21;;;;;;;56.03;20.55;;;9.50;99.90;;;;;;4995840;28;19999;-76
2022/05/06 03:43:47;;;;;;;54.08;18.42;;;9.50;99.90;;;;;;4996926;28;20078;-76
2022/05/06 03:46:13;;;;;;;49.88;19.38;;;9.50;99.90;;;;;;4995073;28;20027;-81
2022/05/06 03:48:39;;;;;;;57.67;19.20;;;9.50;99.90;;;;;;4993278;28;20023;-81
2022/05/06 03:51:23;;;;;;;52.20;19.30;;;9.50;99.90;;;;;;4994130;28;20019;-79
2022/05/06 03:53:54;;;;;;;54.78;20.95;;;9.50;99.90;;;;;;4994994;28;20279;-78
2022/05/06 03:56:24;;;;;;;52.28;19.70;;;9.50;99.90;;;;;;4996897;28;20070;-76
2022/05/06 03:58:53;;;;;;;54.53;21.98;;;9.50;99.90;;;;;;4997632;28;20023;-75
2022/05/06 04:01:20;;;;;;;71.72;24.70;;;9.50;99.90;;;;;;4998100;28;20038;-74
2022/05/06 04:03:50;;;;;;;65.13;21.20;;;9.60;99.90;;;;;;4998361;28;20078;-76
2022/05/06 04:06:16;;;;;;;57.85;23.05;;;9.60;99.90;;;;;;4997266;28;20170;-75
2022/05/06 04:08:42;;;;;;;71.78;26.65;;;9.50;99.90;;;;;;4998090;28;20175;-82
2022/05/06 04:11:12;;;;;;;81.82;26.35;;;9.50;99.90;;;;;;4997421;28;20038;-76
2022/05/06 04:13:38;;;;;;;80.47;26.48;;;9.50;99.90;;;;;;4997975;28;20026;-75
2022/05/06 04:16:04;;;;;;;70.45;25.27;;;9.50;99.90;;;;;;4998240;28;20054;-76
2022/05/06 04:18:45;;;;;;;75.75;26.58;;;9.50;99.90;;;;;;4997373;28;20019;-76
2022/05/06 04:23:55;;;;;;;88.25;28.52;;;9.60;99.90;;;;;;4998500;28;20034;-75
2022/05/06 04:26:31;;;;;;;82.43;28.15;;;9.50;99.90;;;;;;4996872;28;20035;-76
2022/05/06 04:29:04;;;;;;;59.22;29.02;;;9.50;99.90;;;;;;4997394;28;20007;-76
2022/05/06 04:31:51;;;;;;;78.30;24.85;;;9.50;99.90;;;;;;4998415;28;20042;-76
2022/05/06 04:34:26;;;;;;;76.72;30.02;;;9.50;99.90;;;;;;4998550;28;20026;-76
2022/05/06 04:36:51;;;;;;;80.80;28.17;;;9.50;99.90;;;;;;5013970;28;20045;-80
2022/05/06 04:39:37;;;;;;;71.15;25.77;;;9.60;99.90;;;;;;4997571;28;20026;-75
2022/05/06 04:42:03;;;;;;;70.85;24.02;;;9.60;99.90;;;;;;4997255;28;20061;-77
2022/05/06 04:44:31;;;;;;;58.83;23.25;;;9.50;99.90;;;;;;4998281;28;20046;-75
2022/05/06 04:46:57;;;;;;;63.78;22.13;;;9.60;99.90;;;;;;4981757;28;20019;-75
2022/05/06 04:49:23;;;;;;;59.90;23.58;;;9.60;99.90;;;;;;4998449;28;20071;-81
2022/05/06 04:51:53;;;;;;;69.10;26.63;;;9.60;99.90;;;;;;4998736;28;20037;-74
2022/05/06 04:54:30;;;;;;;71.70;24.75;;;9.60;99.90;;;;;;4997830;28;20019;-76
2022/05/06 04:56:57;;;;;;;68.00;26.40;;;9.60;99.90;;;;;;4998185;28;20037;-75
2022/05/06 04:59:23;;;;;;;64.63;22.42;;;9.60;99.90;;;;;;4993487;28;20027;-76
2022/05/06 05:01:49;;;;;;;57.55;24.10;;;9.60;99.90;;;;;;4975410;28;20031;-77
2022/05/06 05:04:16;;;;;;;61.50;23.60;;;9.60;99.90;;;;;;4977841;28;20113;-75
2022/05/06 05:06:41;;;;;;;52.63;21.63;;;9.60;99.90;;;;;;4974247;28;20019;-75
2022/05/06 05:09:07;;;;;;;50.17;19.25;;;9.60;99.90;;;;;;4977100;28;20555;-75
2022/05/06 05:11:34;;;;;;;46.33;20.60;;;9.60;99.90;;;;;;4972555;28;20196;-74
2022/05/06 05:14:02;;;;;;;50.38;21.33;;;9.70;99.90;;;;;;4976007;28;20033;-75
2022/05/06 05:16:29;;;;;;;59.65;24.67;;;9.60;99.90;;;;;;5002689;28;20014;-78
2022/05/06 05:18:54;;;;;;;48.63;20.60;;;9.70;99.90;;;;;;5001459;28;20022;-77
2022/05/06 05:21:20;;;;;;;45.80;19.58;;;9.70;99.90;;;;;;5001229;28;20311;-77
2022/05/06 05:23:46;;;;;;;44.05;20.92;;;9.60;99.90;;;;;;5003327;28;20259;-77
2022/05/06 05:26:12;;;;;;;45.45;20.17;;;9.70;99.90;;;;;;5001829;28;20061;-78
2022/05/06 05:28:38;;;;;;;41.00;19.95;;;9.70;99.90;;;;;;4964452;28;20106;-76
2022/05/06 05:31:04;;;;;;;55.90;20.35;;;9.70;99.90;;;;;;4963747;28;20479;-77
2022/05/06 05:33:30;;;;;;;44.30;19.25;;;9.60;99.90;;;;;;4971814;28;20058;-79
2022/05/06 05:35:55;;;;;;;43.78;19.02;;;9.70;99.90;;;;;;4982002;28;20333;-77
2022/05/06 05:38:21;;;;;;;42.67;18.92;;;9.70;99.90;;;;;;4978410;28;20039;-76
2022/05/06 05:40:47;;;;;;;40.33;16.20;;;9.70;99.90;;;;;;4976864;28;20031;-77
2022/05/06 05:48:43;;;;;;;40.90;17.00;;;9.80;99.90;;;;;;4969240;28;20067;-77
2022/05/06 05:51:09;;;;;;;37.67;18.05;;;9.80;99.90;;;;;;4965045;28;20031;-77
2022/05/06 05:53:35;;;;;;;47.80;20.08;;;9.80;99.90;;;;;;4968505;28;20023;-78
2022/05/06 05:56:01;;;;;;;41.72;20.25;;;9.90;99.90;;;;;;4973217;28;20034;-80
2022/05/06 05:58:27;;;;;;;45.35;19.83;;;9.90;99.90;;;;;;4973346;28;20041;-77
2022/05/06 06:00:53;;;;;;;42.83;19.77;;;9.90;99.90;;;;;;4975018;28;20011;-77
2022/05/06 06:03:19;;;;;;;42.85;20.35;;;9.80;99.90;;;;;;4972175;28;20260;-77
2022/05/06 06:05:44;;;;;;;41.70;18.45;;;9.90;99.90;;;;;;4982128;28;20192;-77
2022/05/06 06:08:10;;;;;;;38.90;15.85;;;9.90;99.90;;;;;;4981971;28;20030;-78
2022/05/06 06:10:36;;;;;;;39.92;19.85;;;9.90;99.90;;;;;;4983126;28;20093;-77
2022/05/06 06:13:04;;;;;;;44.20;19.73;;;9.90;99.90;;;;;;4982886;28;20152;-77
2022/05/06 06:15:30;;;;;;;44.83;18.92;;;9.90;99.90;;;;;;4981519;28;20023;-78
2022/05/06 06:17:56;;;;;;;46.08;19.15;;;9.80;99.90;;;;;;4983118;28;20033;-77
2022/05/06 06:20:23;;;;;;;40.45;17.63;;;9.80;99.90;;;;;;4981967;28;20027;-80
2022/05/06 06:22:50;;;;;;;41.50;17.35;;;9.90;99.90;;;;;;4985798;28;20035;-80
2022/05/06 06:25:16;;;;;;;37.28;16.35;;;10.00;99.90;;;;;;4964435;28;20046;-81
2022/05/06 06:27:43;;;;;;;43.78;16.58;;;10.00;99.90;;;;;;4962696;28;20483;-78
2022/05/06 06:30:10;;;;;;;32.95;16.45;;;10.10;99.90;;;;;;4959509;28;20110;-78
2022/05/06 06:32:36;;;;;;;33.35;18.42;;;10.10;99.90;;;;;;4965057;28;20054;-78
2022/05/06 06:35:02;;;;;;;34.20;16.35;;;10.10;99.90;;;;;;4964164;28;20465;-78
2022/05/06 06:37:28;;;;;;;31.55;17.35;;;10.20;99.90;;;;;;4962276;28;20023;-78
2022/05/06 06:39:54;;;;;;;31.20;15.73;;;10.10;99.90;;;;;;4962873;28;20027;-78
2022/05/06 06:42:19;;;;;;;28.25;13.88;;;10.20;99.90;;;;;;4971617;28;20086;-78
2022/05/06 06:44:45;;;;;;;28.80;15.93;;;10.20;99.90;;;;;;4970832;28;20030;-79
2022/05/06 06:47:11;;;;;;;29.30;15.32;;;10.10;99.90;;;;;;4975778;28;20069;-78
2022/05/06 06:49:37;;;;;;;29.65;15.93;;;10.20;99.90;;;;;;4974950;28;20102;-78
2022/05/06 06:52:06;;;;;;;25.05;13.18;;;10.20;99.90;;;;;;4973795;28;20063;-79
2022/05/06 06:54:33;;;;;;;28.30;14.20;;;10.20;99.90;;;;;;4976612;28;20222;-78
2022/05/06 06:56:58;;;;;;;27.70;13.55;;;10.20;99.90;;;;;;4974547;28;20034;-78
2022/05/06 06:59:24;;;;;;;29.80;14.15;;;10.20;99.90;;;;;;4974196;28;20037;-78
2022/05/06 07:01:50;;;;;;;27.52;14.55;;;10.20;99.90;;;;;;4976334;28;20023;-78
2022/05/06 07:04:16;;;;;;;26.92;13.27;;;10.10;99.90;;;;;;4975308;28;20524;-79
2022/05/06 07:12:10;;;;;;;29.95;13.48;;;10.10;99.90;;;;;;4974865;28;20499;-79
2022/05/06 07:14:36;;;;;;;27.45;13.07;;;10.10;99.90;;;;;;4974988;28;20023;-80
2022/05/06 07:17:05;;;;;;;26.85;14.43;;;10.20;99.90;;;;;;4974423;28;20466;-78
2022/05/06 07:19:31;;;;;;;28.40;13.73;;;10.20;99.90;;;;;;4972833;28;20081;-78
2022/05/06 07:21:56;;;;;;;29.05;14.57;;;10.20;99.90;;;;;;4973514;28;20921;-78
2022/05/06 07:24:24;;;;;;;24.90;14.07;;;10.20;99.90;;;;;;4974727;28;20058;-78
2022/05/06 07:26:50;;;;;;;23.30;13.05;;;10.10;99.90;;;;;;4970549;28;20026;-78
2022/05/06 07:29:16;;;;;;;32.70;14.25;;;10.10;99.90;;;;;;4964873;28;20037;-78
2022/05/06 07:31:43;;;;;;;29.88;15.82;;;10.10;99.90;;;;;;4967056;28;20061;-78
2022/05/06 07:34:12;;;;;;;32.38;15.50;;;10.10;99.90;;;;;;4967590;28;20027;-79
2022/05/06 07:36:41;;;;;;;32.65;15.27;;;10.10;99.90;;;;;;4963625;28;20034;-78
2022/05/06 07:39:12;;;;;;;25.25;12.73;;;10.20;99.90;;;;;;4964723;28;20393;-79
2022/05/06 07:41:38;;;;;;;31.98;16.10;;;10.10;99.90;;;;;;4960619;28;20042;-79
2022/05/06 07:44:05;;;;;;;26.60;13.43;;;10.20;99.90;;;;;;4962442;28;20102;-79
2022/05/06 07:46:31;;;;;;;35.25;16.23;;;10.20;99.90;;;;;;4960940;28;20035;-79
2022/05/06 07:48:57;;;;;;;29.80;15.98;;;10.20;99.90;;;;;;4961792;28;20552;-79
2022/05/06 07:51:23;;;;;;;35.20;16.38;;;10.10;99.90;;;;;;4961336;28;20054;-79
2022/05/06 07:53:51;;;;;;;53.13;21.35;;;10.20;99.90;;;;;;4964410;28;20022;-79
2022/05/06 07:56:18;;;;;;;33.30;16.92;;;10.10;99.90;;;;;;4963330;28;20114;-78
2022/05/06 07:58:44;;;;;;;29.35;14.20;;;10.20;99.90;;;;;;4979447;28;20019;-78
2022/05/06 08:01:11;;;;;;;30.65;15.13;;;10.20;99.90;;;;;;4965447;28;20026;-78
2022/05/06 08:06:22;;;;;;;36.15;16.50;;;10.20;99.90;;;;;;4953276;28;20081;-77
2022/05/06 08:08:47;;;;;;;28.27;15.82;;;10.20;99.90;;;;;;4952610;28;20031;-78
2022/05/06 08:11:13;;;;;;;41.25;18.40;;;10.20;99.90;;;;;;4953172;28;20023;-77
2022/05/06 08:13:39;;;;;;;38.53;17.98;;;10.20;99.90;;;;;;4950885;28;20031;-79
2022/05/06 08:16:05;;;;;;;31.23;13.65;;;10.30;99.90;;;;;;4963988;28;20473;-79
2022/05/06 08:18:31;;;;;;;25.00;14.40;;;10.30;99.90;;;;;;4950177;28;20034;-79
2022/05/06 08:20:56;;;;;;;30.00;15.88;;;10.40;99.90;;;;;;4952334;28;20499;-77
2022/05/06 08:23:23;;;;;;;31.58;16.08;;;10.40;99.90;;;;;;4954209;28;20109;-76
2022/05/06 08:25:53;;;;;;;34.28;17.70;;;10.40;99.90;;;;;;4969303;28;20019;-78
2022/05/06 08:28:19;;;;;;;;;;;10.40;99.90;;;;;;4969447;28;20468;-78
2022/05/06 08:30:49;;;;;;;31.27;15.23;;;10.30;99.90;;;;;;4967555;28;19969;-79
2022/05/06 08:33:15;;;;;;;32.28;14.95;;;10.40;99.90;;;;;;4974248;28;20030;-76
2022/05/06 08:35:42;;;;;;;34.53;16.40;;;12.40;99.90;;;;;;4972370;28;20118;-76
2022/05/06 08:38:08;;;;;;;31.83;13.90;;;10.60;99.90;;;;;;4971558;28;20085;-78
2022/05/06 08:40:38;;;;;;;33.10;17.23;;;10.50;99.90;;;;;;4974536;28;20543;-78
2022/05/06 08:43:04;;;;;;;30.85;16.58;;;10.50;99.90;;;;;;4972388;28;20051;-79
2022/05/06 08:51:02;;;;;;;33.70;15.60;;;10.60;99.90;;;;;;4971763;28;20034;-76
2022/05/06 08:53:33;;;;;;;37.33;18.80;;;10.60;99.90;;;;;;4986572;28;20407;-80
2022/05/06 08:56:02;;;;;;;37.65;19.25;;;10.70;99.90;;;;;;4970079;28;20050;-76
2022/05/06 08:58:31;;;;;;;38.42;17.35;;;10.80;99.90;;;;;;4971391;28;20039;-79
2022/05/06 09:01:10;;;;;;;34.10;17.15;;;10.70;99.90;;;;;;4973834;28;20029;-79
2022/05/06 09:03:43;;;;;;;;;;;10.80;99.90;;;;;;4972569;28;20050;-79
2022/05/06 09:06:29;;;;;;;33.15;15.25;;;11.00;99.90;;;;;;4972163;28;20324;-79
2022/05/06 09:08:58;;;;;;;33.88;18.70;;;11.00;99.90;;;;;;4971983;28;20026;-76
2022/05/06 09:14:16;;;;;;;30.52;16.40;;;11.00;99.90;;;;;;4972407;28;20042;-76
2022/05/06 09:16:44;;;;;;;32.75;15.05;;;11.00;99.90;;;;;;4970788;28;20119;-79
2022/05/06 09:19:20;;;;;;;33.60;18.13;;;11.10;99.90;;;;;;4971483;28;20029;-79
2022/05/06 09:22:14;;;;;;;31.50;16.38;;;11.10;99.90;;;;;;4971305;28;20316;-78
2022/05/06 09:24:47;;;;;;;33.67;16.83;;;11.10;99.90;;;;;;4971313;28;20031;-81
2022/05/06 09:27:14;;;;;;;35.53;15.02;;;11.30;99.90;;;;;;4978189;28;20046;-80
2022/05/06 09:29:44;;;;;;;29.00;14.50;;;11.50;99.90;;;;;;5002468;28;20042;-81
2022/05/06 09:32:21;;;;;;;30.15;18.42;;;11.50;99.90;;;;;;4994573;28;20022;-80
2022/05/06 09:34:55;;;;;;;31.80;17.83;;;11.60;99.90;;;;;;4992686;28;20026;-77
2022/05/06 09:37:40;;;;;;;28.10;15.07;;;11.60;99.90;;;;;;4990502;28;20034;-78
2022/05/06 09:40:10;;;;;;;31.27;16.10;;;11.60;99.90;;;;;;4990429;28;20097;-78
2022/05/06 09:42:38;;;;;;;26.23;13.27;;;11.90;99.90;;;;;;4973325;28;20133;-77
2022/05/06 09:45:05;;;;;;;26.08;15.88;;;12.50;99.90;;;;;;4986376;28;20018;-80
2022/05/06 09:47:33;;;;;;;20.13;12.38;;;12.50;99.90;;;;;;4972190;28;20055;-78
2022/05/06 09:49:59;;;;;;;25.15;13.60;;;12.50;99.90;;;;;;4971950;28;20026;-79
2022/05/06 09:52:25;;;;;;;25.23;13.00;;;12.40;99.90;;;;;;4969266;28;20317;-79
2022/05/06 09:54:53;;;;;;;26.63;15.13;;;12.40;99.90;;;;;;4969688;28;20293;-78
2022/05/06 09:57:19;;;;;;;25.77;14.70;;;12.50;99.90;;;;;;4970962;28;20039;-78
2022/05/06 09:59:46;;;;;;;25.77;12.68;;;12.50;99.90;;;;;;4970072;28;20063;-79
2022/05/06 10:02:13;;;;;;;22.42;13.35;;;12.70;99.90;;;;;;4975692;28;20046;-79
2022/05/06 10:04:39;;;;;;;22.73;13.05;;;12.60;99.90;;;;;;4972350;28;20168;-80
2022/05/06 10:07:07;;;;;;;21.77;11.90;;;12.60;99.90;;;;;;4968298;28;20026;-80
2022/05/06 10:09:37;;;;;;;23.27;14.45;;;12.70;99.90;;;;;;4977811;28;20208;-79
2022/05/06 10:12:06;;;;;;;22.27;12.50;;;13.10;99.90;;;;;;4985087;28;20026;-80
2022/05/06 10:14:34;;;;;;;21.75;12.10;;;13.40;99.90;;;;;;4984991;28;20034;-80
2022/05/06 10:16:59;;;;;;;25.33;13.05;;;13.30;99.90;;;;;;4981216;28;20061;-81
2022/05/06 10:19:46;;;;;;;21.42;13.98;;;13.10;99.90;;;;;;5000023;28;20034;-81
2022/05/06 10:22:12;;;;;;;20.85;13.73;;;13.20;99.90;;;;;;4981761;28;20411;-80
2022/05/06 10:24:39;;;;;;;27.00;14.40;;;13.10;99.90;;;;;;4961138;28;20373;-78
2022/05/06 10:33:13;;;;;;;28.90;14.00;;;12.80;99.90;;;;;;4955165;28;20333;-78
2022/05/06 10:35:43;;;;;;;24.88;13.13;;;12.80;99.90;;;;;;4953392;28;20103;-80
2022/05/06 10:38:24;;;;;;;23.90;14.18;;;13.00;99.90;;;;;;4972568;28;20048;-81
2022/05/06 10:40:54;;;;;;;29.02;14.85;;;13.10;99.90;;;;;;4962325;28;20031;-81
2022/05/06 10:43:41;;;;;;;21.60;12.77;;;13.20;99.90;;;;;;4971503;28;20162;-80
2022/05/06 10:46:07;;;;;;;27.63;16.05;;;13.40;99.90;;;;;;4975583;28;20368;-81
2022/05/06 10:48:33;;;;;;;24.67;14.85;;;13.20;99.90;;;;;;4964642;28;20038;-79
2022/05/06 10:51:22;;;;;;;19.83;13.20;;;13.30;99.90;;;;;;4962600;28;20117;-77
2022/05/06 10:53:48;;;;;;;26.50;15.10;;;13.10;99.90;;;;;;4952316;28;20051;-77
2022/05/06 10:56:17;;;;;;;25.25;14.75;;;11.10;99.90;;;;;;4964427;28;20050;-80
2022/05/06 10:58:43;;;;;;;23.75;15.48;;;12.90;99.90;;;;;;4969292;28;20431;-77
2022/05/06 11:01:16;;;;;;;21.85;14.43;;;13.10;99.90;;;;;;4957255;28;20035;-80
2022/05/06 11:03:54;;;;;;;22.90;14.05;;;12.90;99.90;;;;;;4955804;28;20643;-81
2022/05/06 11:06:24;;;;;;;25.60;15.48;;;12.90;99.90;;;;;;4959920;28;20429;-79
2022/05/06 11:08:50;;;;;;;23.35;12.05;;;13.00;99.90;;;;;;4995276;28;20030;-78
2022/05/06 11:11:18;;;;;;;20.63;13.65;;;13.20;99.90;;;;;;4962161;28;20138;-78
2022/05/06 11:13:49;;;;;;;26.60;15.35;;;;;;;;;;4967402;28;20077;-77
2022/05/06 11:16:15;;;;;;;22.67;13.57;;;13.30;99.90;;;;;;4963476;28;20088;-77
2022/05/06 11:18:44;;;;;;;25.95;15.55;;;13.40;99.90;;;;;;4978771;28;20026;-77
2022/05/06 11:21:20;;;;;;;24.00;13.32;;;13.30;99.90;;;;;;4967447;28;20067;-77
2022/05/06 11:23:46;;;;;;;23.23;12.57;;;13.40;99.90;;;;;;4951792;28;20047;-76
2022/05/06 11:26:23;;;;;;;21.10;13.00;;;13.40;99.90;;;;;;4950450;28;20031;-77
2022/05/06 11:29:01;;;;;;;25.52;13.60;;;13.40;99.90;;;;;;4960443;28;20034;-77
2022/05/06 11:31:28;;;;;;;52.28;24.42;;;13.30;99.90;;;;;;4984498;28;20031;-77
2022/05/06 11:33:58;;;;;;;21.63;12.70;;;13.70;99.90;;;;;;4984368;28;20026;-78
2022/05/06 11:36:24;;;;;;;19.38;11.77;;;13.90;99.90;;;;;;4972652;28;20023;-77
2022/05/06 11:38:50;;;;;;;20.27;12.60;;;;;;;;;;4970115;28;20042;-80
2022/05/06 11:41:17;;;;;;;20.83;13.45;;;13.80;99.90;;;;;;4987445;28;20066;-77
2022/05/06 11:43:45;;;;;;;21.77;14.10;;;13.90;99.90;;;;;;4970234;28;20408;-77
2022/05/06 11:49:07;;;;;;;15.75;11.27;;;13.80;99.90;;;;;;4970531;28;20096;-77
2022/05/06 11:51:43;;;;;;;16.35;11.25;;;13.90;99.90;;;;;;4985443;28;20029;-77
2022/05/06 11:54:10;;;;;;;19.77;12.65;;;13.90;99.90;;;;;;4972565;28;20027;-78
2022/05/06 11:56:37;;;;;;;19.63;11.82;;;14.10;99.90;;;;;;4988307;28;20152;-77
2022/05/06 11:59:04;;;;;;;15.77;10.25;;;14.10;99.90;;;;;;4991034;28;20034;-77
2022/05/06 12:01:30;;;;;;;17.58;11.38;;;14.40;99.90;;;;;;4972326;28;20117;-78
2022/05/06 12:04:04;;;;;;;18.50;10.82;;;14.20;99.90;;;;;;4988253;28;20130;-78
2022/05/06 12:06:37;;;;;;;18.85;11.07;;;14.30;99.90;;;;;;4972466;28;20110;-80
2022/05/06 12:09:21;;;;;;;19.63;9.02;;;14.20;99.90;;;;;;4988270;28;20121;-79
2022/05/06 12:12:06;;;;;;;16.30;10.57;;;14.20;99.90;;;;;;4970618;28;20106;-78
2022/05/06 12:14:31;;;;;;;14.38;9.27;;;14.40;99.90;;;;;;4987969;28;20031;-76
2022/05/06 12:17:05;;;;;;;14.52;8.80;;;14.30;99.90;;;;;;4973723;28;20093;-76
2022/05/06 12:19:38;;;;;;;17.83;9.68;;;14.40;99.90;;;;;;4990171;28;20539;-79
2022/05/06 12:22:14;;;;;;;12.85;9.40;;;14.50;99.90;;;;;;4987797;28;20034;-79
2022/05/06 12:24:51;;;;;;;14.85;10.25;;;14.40;99.90;;;;;;4996218;28;20054;-79
2022/05/06 12:27:23;;;;;;;13.70;7.82;;;14.90;99.90;;;;;;4993049;28;20538;-78
2022/05/06 12:29:49;;;;;;;14.63;9.73;;;15.00;99.90;;;;;;4993408;28;20048;-78
2022/05/06 12:32:15;;;;;;;10.10;7.28;;;14.90;99.90;;;;;;4992597;28;20027;-79
2022/05/06 12:34:40;;;;;;;16.55;8.68;;;15.20;99.90;;;;;;4991207;28;20488;-79
2022/05/06 12:37:16;;;;;;;11.52;8.20;;;15.40;99.90;;;;;;4993607;28;20546;-81
2022/05/06 12:39:48;;;;;;;13.95;8.50;;;15.50;99.90;;;;;;4996928;28;20010;-79
2022/05/06 12:42:18;;;;;;;12.77;8.57;;;15.50;99.90;;;;;;4995913;28;20030;-79
2022/05/06 12:44:45;;;;;;;11.98;6.35;;;15.60;99.90;;;;;;4992294;28;20069;-80
2022/05/06 12:50:01;;;;;;;14.90;8.25;;;15.30;99.90;;;;;;4995132;28;20054;-80
2022/05/06 12:52:27;;;;;;;10.13;8.15;;;15.30;99.90;;;;;;4991428;28;20030;-80
2022/05/06 12:54:53;;;;;;;12.85;7.30;;;15.20;99.90;;;;;;5007292;28;20442;-79
2022/05/06 12:57:18;;;;;;;10.85;6.97;;;15.20;99.90;;;;;;5007042;28;20074;-79
2022/05/06 12:59:44;;;;;;;10.18;6.35;;;15.30;99.90;;;;;;4989873;28;20037;-78
2022/05/06 13:02:10;;;;;;;11.63;8.20;;;15.40;99.90;;;;;;4998503;28;20049;-77
2022/05/06 13:04:36;;;;;;;10.20;6.45;;;15.50;99.90;;;;;;4999266;28;20226;-80
2022/05/06 13:07:03;;;;;;;15.35;7.63;;;15.70;99.90;;;;;;4997295;28;20027;-77
2022/05/06 13:09:29;;;;;;;14.93;8.63;;;15.80;99.90;;;;;;4994375;28;20133;-78
2022/05/06 13:11:55;;;;;;;9.82;6.75;;;15.80;99.90;;;;;;4997494;28;20019;-76
2022/05/06 13:14:25;;;;;;;12.48;7.43;;;15.60;99.90;;;;;;4995239;28;20045;-76
2022/05/06 13:16:53;;;;;;;13.40;7.15;;;15.60;99.90;;;;;;4996307;28;20010;-76
2022/05/06 13:19:18;;;;;;;13.30;7.10;;;15.40;99.90;;;;;;4975837;28;20066;-76
2022/05/06 13:21:44;;;;;;;10.63;7.45;;;14.20;99.90;;;;;;4975198;28;20022;-76